createdAt,value
2018-06-27T00:00:43.753Z,102650.45
2018-06-27T00:03:11.704Z,102650.03
2018-06-27T00:05:39.395Z,102642.98
2018-06-27T00:08:07.376Z,102644.30
2018-06-27T00:10:35.030Z,102647.83
2018-06-27T00:13:03.064Z,102646.97
2018-06-27T00:15:31.069Z,102649.17
2018-06-27T00:17:58.687Z,102651.81
2018-06-27T00:20:26.666Z,102653.98
2018-06-27T00:22:54.676Z,102653.56
2018-06-27T00:25:22.338Z,102653.56
2018-06-27T00:27:50.327Z,102648.72
2018-06-27T00:30:18.238Z,102649.18
2018-06-27T00:32:46.137Z,102647.44
2018-06-27T00:35:14.106Z,102646.55
2018-06-27T00:37:41.765Z,102639.97
2018-06-27T00:40:09.415Z,102648.30
2018-06-27T00:42:37.298Z,102641.29
2018-06-27T00:45:06.110Z,102643.06
2018-06-27T00:47:34.041Z,102630.79
2018-06-27T00:50:01.695Z,102624.25
2018-06-27T00:52:29.652Z,102641.33
2018-06-27T00:54:57.956Z,102647.45
2018-06-27T00:57:25.867Z,102642.64
2018-06-27T00:59:53.843Z,102646.16
2018-06-27T01:02:21.493Z,102652.75
2018-06-27T01:04:49.261Z,102649.66
2018-06-27T01:07:17.510Z,102650.11
2018-06-27T01:09:45.741Z,102652.75
2018-06-27T01:12:13.724Z,102651.39
2018-06-27T01:14:41.363Z,102651.86
2018-06-27T01:17:08.981Z,102651.86
2018-06-27T01:19:37.141Z,102647.48
2018-06-27T01:22:05.147Z,102648.80
2018-06-27T01:24:32.777Z,102658.02
2018-06-27T01:27:00.732Z,102665.91
2018-06-27T01:29:28.426Z,102654.95
2018-06-27T01:31:56.045Z,102658.02
2018-06-27T01:34:23.928Z,102661.54
2018-06-27T01:36:51.824Z,102653.17
2018-06-27T01:39:19.484Z,102656.27
2018-06-27T01:41:47.126Z,102656.27
2018-06-27T01:44:15.097Z,102657.59
2018-06-27T01:46:43.066Z,102664.56
2018-06-27T01:49:10.993Z,102659.33
2018-06-27T01:51:38.660Z,102661.08
2018-06-27T01:54:06.421Z,102659.77
2018-06-27T01:56:34.046Z,102662.86
2018-06-27T01:59:01.944Z,102653.21
2018-06-27T02:01:29.878Z,102658.91
2018-06-27T02:03:57.773Z,102658.05
2018-06-27T02:06:25.394Z,102663.74
2018-06-27T02:08:53.037Z,102660.69
2018-06-27T02:11:20.668Z,102664.17
2018-06-27T02:13:48.541Z,102662.42
2018-06-27T02:16:16.195Z,102655.84
2018-06-27T02:18:43.838Z,102654.99
2018-06-27T02:21:11.861Z,102656.30
2018-06-27T02:23:39.451Z,102651.89
2018-06-27T02:26:07.060Z,102658.05
2018-06-27T02:28:35.037Z,102653.67
2018-06-27T02:31:02.885Z,102654.10
2018-06-27T02:33:30.700Z,102653.25
2018-06-27T02:35:59.663Z,102658.08
2018-06-27T02:38:27.563Z,102660.25
2018-06-27T02:40:55.873Z,102663.77
2018-06-27T02:43:23.794Z,102665.52
2018-06-27T02:45:51.627Z,102676.94
2018-06-27T02:48:19.483Z,102670.35
2018-06-27T02:50:47.092Z,102670.35
2018-06-27T02:53:15.520Z,102680.45
2018-06-27T02:55:43.137Z,102672.55
2018-06-27T02:58:11.149Z,102675.19
2018-06-27T03:00:38.785Z,102676.93
2018-06-27T03:03:06.783Z,102675.19
2018-06-27T03:05:34.450Z,102678.25
2018-06-27T03:08:03.004Z,102674.30
2018-06-27T03:10:30.893Z,102671.66
2018-06-27T03:12:58.780Z,102669.50
2018-06-27T03:15:26.446Z,102674.76
2018-06-27T03:17:54.085Z,102673.44
2018-06-27T03:20:21.737Z,102669.92
2018-06-27T03:22:49.408Z,102674.76
2018-06-27T03:25:17.048Z,102668.17
2018-06-27T03:27:45.007Z,102671.69
2018-06-27T03:30:13.011Z,102676.95
2018-06-27T03:32:40.990Z,102683.97
2018-06-27T03:35:08.865Z,102681.76
2018-06-27T03:37:36.505Z,102677.37
2018-06-27T03:40:04.125Z,102670.80
2018-06-27T03:42:31.787Z,102677.37
2018-06-27T03:44:59.836Z,102677.81
2018-06-27T03:47:27.457Z,102680.02
2018-06-27T03:49:55.355Z,102681.33
2018-06-27T03:52:23.118Z,102675.64
2018-06-27T03:54:51.058Z,102672.58
2018-06-27T03:57:18.680Z,102674.32
2018-06-27T03:59:46.604Z,102680.44
2018-06-27T04:02:14.869Z,102682.65
2018-06-27T04:04:42.566Z,102686.14
2018-06-27T04:07:10.631Z,102687.00
2018-06-27T04:09:38.246Z,102688.33
2018-06-27T04:12:06.268Z,102687.01
2018-06-27T04:14:34.049Z,102683.48
2018-06-27T04:17:01.938Z,102680.86
2018-06-27T04:19:29.546Z,102675.59
2018-06-27T04:21:57.729Z,102677.80
2018-06-27T04:24:25.440Z,102683.48
2018-06-27T04:26:53.567Z,102678.68
2018-06-27T04:32:23.514Z,102691.37
2018-06-27T04:34:51.156Z,102689.21
2018-06-27T04:37:19.303Z,102683.06
2018-06-27T04:39:46.996Z,102682.17
2018-06-27T04:42:15.041Z,102688.33
2018-06-27T04:44:42.751Z,102691.38
2018-06-27T04:47:10.737Z,102692.27
2018-06-27T04:49:38.424Z,102690.53
2018-06-27T04:52:06.486Z,102706.32
2018-06-27T04:54:34.450Z,102698.42
2018-06-27T04:57:02.229Z,102697.54
2018-06-27T04:59:30.016Z,102701.91
2018-06-27T05:01:57.873Z,102701.03
2018-06-27T05:04:25.476Z,102704.52
2018-06-27T05:06:54.109Z,102706.27
2018-06-27T05:09:22.028Z,102701.89
2018-06-27T05:11:49.636Z,102706.69
2018-06-27T05:14:17.284Z,102706.30
2018-06-27T05:16:44.987Z,102708.48
2018-06-27T05:19:12.983Z,102713.74
2018-06-27T05:21:40.977Z,102713.31
2018-06-27T05:24:08.603Z,102710.64
2018-06-27T05:26:36.280Z,102702.78
2018-06-27T05:29:03.998Z,102708.47
2018-06-27T05:31:32.524Z,102707.19
2018-06-27T05:34:00.267Z,102710.25
2018-06-27T05:36:27.821Z,102711.53
2018-06-27T05:38:55.712Z,102713.73
2018-06-27T05:41:23.384Z,102707.59
2018-06-27T05:43:51.015Z,102710.19
2018-06-27T05:46:18.919Z,102709.72
2018-06-27T05:48:46.540Z,102711.46
2018-06-27T05:51:14.160Z,102717.13
2018-06-27T05:53:41.886Z,102725.91
2018-06-27T05:56:09.667Z,102716.69
2018-06-27T05:58:37.441Z,102728.94
2018-06-27T06:01:05.638Z,102727.61
2018-06-27T06:03:33.314Z,102720.55
2018-06-27T06:06:00.994Z,102724.55
2018-06-27T06:08:28.836Z,102734.23
2018-06-27T06:10:56.783Z,102733.35
2018-06-27T06:13:24.687Z,102735.59
2018-06-27T06:15:52.340Z,102742.61
2018-06-27T06:18:20.135Z,102737.34
2018-06-27T06:20:47.849Z,102733.81
2018-06-27T06:23:15.819Z,102735.56
2018-06-27T06:25:43.626Z,102739.09
2018-06-27T06:28:11.577Z,102737.77
2018-06-27T06:30:39.284Z,102738.63
2018-06-27T06:33:07.045Z,102738.63
2018-06-27T06:35:34.744Z,102732.88
2018-06-27T06:38:02.399Z,102735.95
2018-06-27T06:40:30.124Z,102737.68
2018-06-27T06:42:57.944Z,102735.94
2018-06-27T06:45:26.273Z,102739.00
2018-06-27T06:47:53.886Z,102743.42
2018-06-27T06:50:21.569Z,102742.10
2018-06-27T06:52:49.265Z,102752.18
2018-06-27T06:55:16.923Z,102757.88
2018-06-27T06:57:45.228Z,102763.14
2018-06-27T07:00:12.988Z,102765.35
2018-06-27T07:02:40.621Z,102757.88
2018-06-27T07:05:08.385Z,102761.83
2018-06-27T07:07:36.102Z,102759.66
2018-06-27T07:10:03.929Z,102758.34
2018-06-27T07:12:31.591Z,102752.64
2018-06-27T07:14:59.252Z,102757.92
2018-06-27T07:17:26.945Z,102760.12
2018-06-27T07:19:54.594Z,102758.38
2018-06-27T07:22:22.335Z,102762.34
2018-06-27T07:24:50.211Z,102760.59
2018-06-27T07:27:18.164Z,102766.29
2018-06-27T07:29:46.668Z,102761.44
2018-06-27T07:32:14.349Z,102767.99
2018-06-27T07:34:42.233Z,102761.39
2018-06-27T07:37:09.888Z,102757.40
2018-06-27T07:39:37.526Z,102752.55
2018-06-27T07:42:05.317Z,102759.55
2018-06-27T07:44:33.031Z,102762.66
2018-06-27T07:47:00.882Z,102768.35
2018-06-27T07:49:28.925Z,102765.29
2018-06-27T07:51:56.588Z,102771.88
2018-06-27T07:54:24.271Z,102769.23
2018-06-27T07:56:51.953Z,102766.56
2018-06-27T07:59:19.872Z,102767.88
2018-06-27T08:01:47.798Z,102761.28
2018-06-27T08:04:15.465Z,102765.67
2018-06-27T08:06:45.002Z,102759.97
2018-06-27T08:09:13.042Z,102752.95
2018-06-27T08:11:41.979Z,102756.44
2018-06-27T08:14:09.666Z,102749.84
2018-06-27T08:16:37.588Z,102756.42
2018-06-27T08:19:05.968Z,102752.05
2018-06-27T08:21:33.623Z,102752.00
2018-06-27T08:24:01.818Z,102756.42
2018-06-27T08:26:29.516Z,102752.00
2018-06-27T08:28:57.472Z,102754.21
2018-06-27T08:31:25.572Z,102747.61
2018-06-27T08:33:53.453Z,102756.84
2018-06-27T08:36:21.088Z,102758.58
2018-06-27T08:38:48.748Z,102747.14
2018-06-27T08:41:16.714Z,102752.84
2018-06-27T08:43:44.739Z,102755.47
2018-06-27T08:46:12.912Z,102762.06
2018-06-27T08:48:40.655Z,102758.53
2018-06-27T08:51:08.328Z,102762.05
2018-06-27T08:53:36.001Z,102765.11
2018-06-27T08:56:03.706Z,102753.23
2018-06-27T08:58:31.573Z,102761.14
2018-06-27T09:00:59.214Z,102754.09
2018-06-27T09:03:27.230Z,102749.23
2018-06-27T09:05:54.887Z,102745.27
2018-06-27T09:08:22.681Z,102742.20
2018-06-27T09:10:50.666Z,102749.66
2018-06-27T09:13:18.583Z,102757.12
2018-06-27T09:15:46.587Z,102755.80
2018-06-27T09:18:14.489Z,102761.02
2018-06-27T09:20:42.207Z,102758.80
2018-06-27T09:23:10.197Z,102761.02
2018-06-27T09:25:38.115Z,102758.80
2018-06-27T09:28:05.925Z,102761.42
2018-06-27T09:30:33.569Z,102758.31
2018-06-27T09:33:01.214Z,102760.95
2018-06-27T09:35:29.747Z,102752.19
2018-06-27T09:37:57.440Z,102757.90
2018-06-27T09:40:25.343Z,102760.04
2018-06-27T09:42:53.442Z,102761.33
2018-06-27T09:45:21.110Z,102758.23
2018-06-27T09:47:48.739Z,102758.22
2018-06-27T09:50:16.461Z,102762.18
2018-06-27T09:52:44.540Z,102753.77
2018-06-27T09:55:12.313Z,102759.92
2018-06-27T09:57:39.977Z,102763.42
2018-06-27T10:00:12.136Z,102760.79
2018-06-27T10:02:40.095Z,102759.91
2018-06-27T10:05:07.750Z,102755.05
2018-06-27T10:07:35.788Z,102751.91
2018-06-27T10:10:03.414Z,102747.91
2018-06-27T10:12:31.372Z,102747.85
2018-06-27T10:14:59.084Z,102749.64
2018-06-27T10:17:26.953Z,102739.93
2018-06-27T10:19:54.573Z,102740.34
2018-06-27T10:22:22.396Z,102735.06
2018-06-27T10:24:50.446Z,102736.34
2018-06-27T10:27:18.115Z,102735.45
2018-06-27T10:29:46.095Z,102731.50
2018-06-27T10:32:13.822Z,102736.35
2018-06-27T10:34:41.450Z,102735.45
2018-06-27T10:37:09.113Z,102735.88
2018-06-27T10:39:36.773Z,102732.80
2018-06-27T10:42:04.893Z,102727.55
2018-06-27T10:44:33.026Z,102725.80
2018-06-27T10:47:01.625Z,102726.27
2018-06-27T10:49:30.012Z,102729.73
2018-06-27T10:51:57.707Z,102720.88
2018-06-27T10:54:25.489Z,102725.64
2018-06-27T10:56:53.249Z,102721.61
2018-06-27T10:59:21.039Z,102719.79
2018-06-27T11:01:48.699Z,102717.57
2018-06-27T11:04:16.338Z,102724.16
2018-06-27T11:06:44.536Z,102720.61
2018-06-27T11:09:12.482Z,102718.84
2018-06-27T11:11:40.090Z,102720.08
2018-06-27T11:14:07.759Z,102716.48
2018-06-27T11:16:36.051Z,102712.08
2018-06-27T11:19:03.687Z,102712.52
2018-06-27T11:21:31.282Z,102708.07
2018-06-27T11:23:59.022Z,102710.69
2018-06-27T11:26:26.667Z,102702.29
2018-06-27T11:28:54.293Z,102703.13
2018-06-27T11:31:22.172Z,102706.63
2018-06-27T11:33:49.773Z,102702.66
2018-06-27T11:38:44.864Z,102691.45
2018-06-27T11:41:13.080Z,102698.92
2018-06-27T11:43:41.041Z,102691.45
2018-06-27T11:46:08.672Z,102691.84
2018-06-27T11:48:36.794Z,102692.16
2018-06-27T11:51:05.484Z,102691.95
2018-06-27T11:53:33.493Z,102698.09
2018-06-27T11:56:01.143Z,102697.70
2018-06-27T11:58:29.341Z,102691.89
2018-06-27T12:00:57.336Z,102687.42
2018-06-27T12:03:24.962Z,102689.63
2018-06-27T12:05:52.673Z,102679.88
2018-06-27T12:08:20.602Z,102686.97
2018-06-27T12:10:48.579Z,102687.33
2018-06-27T12:13:16.313Z,102685.49
2018-06-27T12:15:43.906Z,102693.30
2018-06-27T12:18:11.526Z,102691.05
2018-06-27T12:20:39.467Z,102685.84
2018-06-27T12:23:07.132Z,102684.17
2018-06-27T12:25:34.994Z,102684.61
2018-06-27T12:28:02.873Z,102679.75
2018-06-27T12:30:30.523Z,102678.92
2018-06-27T12:32:58.152Z,102678.01
2018-06-27T12:35:25.933Z,102673.53
2018-06-27T12:37:54.069Z,102671.77
2018-06-27T12:40:21.837Z,102668.71
2018-06-27T12:45:52.306Z,102669.16
2018-06-27T12:48:19.897Z,102660.68
2018-06-27T12:50:47.571Z,102658.02
2018-06-27T12:53:15.386Z,102660.22
2018-06-27T12:55:43.041Z,102652.72
2018-06-27T12:58:10.624Z,102651.77
2018-06-27T13:00:38.444Z,102650.03
2018-06-27T13:03:06.244Z,102648.55
2018-06-27T13:05:33.887Z,102649.36
2018-06-27T13:08:01.555Z,102649.34
2018-06-27T13:10:29.393Z,102637.80
2018-06-27T13:12:57.630Z,102634.27
2018-06-27T13:15:25.423Z,102630.77
2018-06-27T13:17:53.001Z,102632.50
2018-06-27T13:20:20.594Z,102627.19
2018-06-27T13:22:48.155Z,102624.44
2018-06-27T13:25:15.797Z,102620.83
2018-06-27T13:27:43.428Z,102619.87
2018-06-27T13:30:11.043Z,102623.39
2018-06-27T13:32:38.857Z,102624.23
2018-06-27T13:35:06.565Z,102615.36
2018-06-27T13:37:34.742Z,102616.69
2018-06-27T13:40:02.708Z,102609.61
2018-06-27T13:42:30.328Z,102607.76
2018-06-27T13:44:58.200Z,102609.92
2018-06-27T13:47:26.126Z,102607.58
2018-06-27T13:49:53.722Z,102614.11
2018-06-27T13:52:21.846Z,102609.61
2018-06-27T13:54:54.468Z,102603.37
2018-06-27T13:57:22.414Z,102602.46
2018-06-27T13:59:50.399Z,102605.47
2018-06-27T14:02:18.183Z,102606.74
2018-06-27T14:04:45.835Z,102607.10
2018-06-27T14:07:13.484Z,102603.04
2018-06-27T14:09:41.429Z,102605.64
2018-06-27T14:12:09.046Z,102602.02
2018-06-27T14:14:36.662Z,102600.16
2018-06-27T14:17:04.478Z,102599.22
2018-06-27T14:19:32.635Z,102598.25
2018-06-27T14:22:00.502Z,102595.39
2018-06-27T14:24:28.166Z,102598.23
2018-06-27T14:26:55.803Z,102594.73
2018-06-27T14:29:23.375Z,102586.02
2018-06-27T14:31:51.056Z,102588.86
2018-06-27T14:34:19.188Z,102582.43
2018-06-27T14:36:46.893Z,102584.16
2018-06-27T14:39:14.495Z,102590.20
2018-06-27T14:41:42.135Z,102589.86
2018-06-27T14:44:09.722Z,102585.81
2018-06-27T14:46:37.469Z,102584.33
2018-06-27T14:49:05.126Z,102582.67
2018-06-27T14:51:33.473Z,102579.91
2018-06-27T14:54:01.113Z,102589.98
2018-06-27T14:56:28.737Z,102591.51
2018-06-27T14:58:56.788Z,102585.87
2018-06-27T15:01:24.464Z,102580.66
2018-06-27T15:03:52.259Z,102580.05
2018-06-27T15:06:19.918Z,102584.09
2018-06-27T15:08:48.401Z,102570.32
2018-06-27T15:11:16.010Z,102569.94
2018-06-27T15:13:43.606Z,102563.19
2018-06-27T15:16:11.606Z,102565.05
2018-06-27T15:18:40.531Z,102565.80
2018-06-27T15:21:08.185Z,102559.52
2018-06-27T15:23:35.988Z,102557.20
2018-06-27T15:26:04.062Z,102554.42
2018-06-27T15:28:31.739Z,102554.52
2018-06-27T15:30:59.348Z,102551.13
2018-06-27T15:33:27.166Z,102535.72
2018-06-27T15:35:54.757Z,102561.61
2018-06-27T15:38:22.342Z,102556.44
2018-06-27T15:40:50.188Z,102550.38
2018-06-27T15:43:21.441Z,102556.33
2018-06-27T15:45:49.553Z,102555.61
2018-06-27T15:48:26.724Z,102555.73
2018-06-27T15:53:27.763Z,102547.16
2018-06-27T15:55:56.025Z,102552.30
2018-06-27T15:58:23.942Z,102551.94
2018-06-27T16:00:51.865Z,102552.36
2018-06-27T16:03:19.689Z,102547.42
2018-06-27T16:05:47.577Z,102543.17
2018-06-27T16:08:15.283Z,102550.20
2018-06-27T16:10:43.070Z,102541.63
2018-06-27T16:13:11.251Z,102547.47
2018-06-27T16:15:38.905Z,102547.16
2018-06-27T16:18:06.669Z,102549.36
2018-06-27T16:20:34.653Z,102551.41
2018-06-27T16:23:04.483Z,102550.30
2018-06-27T16:25:32.120Z,102542.25
2018-06-27T16:27:59.741Z,102539.16
2018-06-27T16:30:27.602Z,102538.51
2018-06-27T16:32:55.215Z,102534.22
2018-06-27T16:35:23.008Z,102537.94
2018-06-27T16:37:50.625Z,102542.81
2018-06-27T16:40:18.238Z,102535.41
2018-06-27T16:42:46.251Z,102539.80
2018-06-27T16:45:13.890Z,102541.49
2018-06-27T16:47:41.551Z,102539.20
2018-06-27T16:50:09.545Z,102538.84
2018-06-27T16:52:37.191Z,102537.19
2018-06-27T16:55:05.062Z,102530.53
2018-06-27T16:57:32.656Z,102537.05
2018-06-27T17:00:00.638Z,102529.07
2018-06-27T17:02:28.277Z,102528.42
2018-06-27T17:04:55.989Z,102532.77
2018-06-27T17:07:23.932Z,102537.30
2018-06-27T17:09:51.521Z,102533.82
2018-06-27T17:12:19.470Z,102541.36
2018-06-27T17:14:47.059Z,102541.47
2018-06-27T17:17:14.904Z,102533.98
2018-06-27T17:19:42.491Z,102537.16
2018-06-27T17:22:10.418Z,102539.14
2018-06-27T17:24:38.249Z,102541.05
2018-06-27T17:27:06.201Z,102540.77
2018-06-27T17:29:34.032Z,102536.59
2018-06-27T17:32:01.635Z,102542.56
2018-06-27T17:34:29.274Z,102544.88
2018-06-27T17:36:57.129Z,102540.72
2018-06-27T17:39:24.776Z,102540.98
2018-06-27T17:41:52.748Z,102547.06
2018-06-27T17:44:20.718Z,102551.16
2018-06-27T17:46:48.698Z,102550.25
2018-06-27T17:49:16.356Z,102544.67
2018-06-27T17:51:44.002Z,102546.70
2018-06-27T17:54:11.663Z,102548.03
2018-06-27T17:56:39.369Z,102548.08
2018-06-27T17:59:07.187Z,102543.00
2018-06-27T18:01:35.962Z,102545.42
2018-06-27T18:04:03.882Z,102555.05
2018-06-27T18:06:31.581Z,102539.30
2018-06-27T18:08:59.465Z,102553.47
2018-06-27T18:11:27.542Z,102552.62
2018-06-27T18:13:55.916Z,102552.78
2018-06-27T18:16:23.542Z,102552.33
2018-06-27T18:18:51.314Z,102558.69
2018-06-27T18:21:19.237Z,102556.38
2018-06-27T18:23:47.057Z,102565.35
2018-06-27T18:29:24.058Z,102563.03
2018-06-27T18:31:51.684Z,102568.48
2018-06-27T18:34:19.643Z,102566.67
2018-06-27T18:36:47.687Z,102573.30
2018-06-27T18:39:15.306Z,102571.23
2018-06-27T18:41:42.926Z,102575.30
2018-06-27T18:44:10.847Z,102575.48
2018-06-27T18:46:38.959Z,102575.80
2018-06-27T18:49:06.732Z,102577.92
2018-06-27T18:51:34.314Z,102582.65
2018-06-27T18:54:01.881Z,102577.62
2018-06-27T18:56:29.836Z,102576.95
2018-06-27T18:58:57.424Z,102585.59
2018-06-27T19:01:25.326Z,102583.70
2018-06-27T19:03:53.333Z,102583.42
2018-06-27T19:06:21.002Z,102579.27
2018-06-27T19:08:48.665Z,102586.59
2018-06-27T19:11:16.794Z,102590.58
2018-06-27T19:13:44.392Z,102590.85
2018-06-27T19:16:12.199Z,102596.36
2018-06-27T19:18:40.524Z,102599.03
2018-06-27T19:21:08.358Z,102600.84
2018-06-27T19:23:36.301Z,102602.08
2018-06-27T19:26:03.986Z,102600.84
2018-06-27T19:28:31.623Z,102604.61
2018-06-27T19:30:59.654Z,102605.39
2018-06-27T19:33:27.681Z,102604.16
2018-06-27T19:35:55.550Z,102607.36
2018-06-27T19:38:23.491Z,102608.40
2018-06-27T19:40:51.402Z,102613.33
2018-06-27T19:43:19.005Z,102616.02
2018-06-27T19:45:46.725Z,102619.64
2018-06-27T19:48:14.324Z,102620.25
2018-06-27T19:50:42.747Z,102624.31
2018-06-27T19:53:10.424Z,102627.47
2018-06-27T19:55:38.201Z,102624.06
2018-06-27T19:58:06.782Z,102628.06
2018-06-27T20:00:35.517Z,102625.44
2018-06-27T20:03:05.082Z,102626.86
2018-06-27T20:05:34.537Z,102624.73
2018-06-27T20:08:04.548Z,102631.02
2018-06-27T20:10:33.460Z,102631.98
2018-06-27T20:13:02.037Z,102635.48
2018-06-27T20:15:30.812Z,102641.78
2018-06-27T20:18:00.483Z,102641.46
2018-06-27T20:20:29.820Z,102637.59
2018-06-27T20:22:58.764Z,102637.66
2018-06-27T20:25:27.840Z,102634.17
2018-06-27T20:27:56.696Z,102640.41
2018-06-27T20:30:25.802Z,102646.24
2018-06-27T20:32:54.820Z,102644.08
2018-06-27T20:35:23.623Z,102642.76
2018-06-27T20:37:52.471Z,102646.34
2018-06-27T20:40:21.373Z,102649.96
2018-06-27T20:42:50.049Z,102645.62
2018-06-27T20:45:19.069Z,102647.01
2018-06-27T20:47:48.196Z,102639.96
2018-06-27T20:50:17.361Z,102642.28
2018-06-27T20:52:46.593Z,102640.59
2018-06-27T20:55:14.527Z,102643.30
2018-06-27T20:57:42.174Z,102646.41
2018-06-27T21:00:11.548Z,102646.86
2018-06-27T21:02:40.493Z,102644.23
2018-06-27T21:05:09.968Z,102640.30
2018-06-27T21:07:38.800Z,102639.91
2018-06-27T21:10:07.665Z,102640.37
2018-06-27T21:12:36.678Z,102638.69
2018-06-27T21:15:05.735Z,102643.12
2018-06-27T21:17:34.950Z,102643.16
2018-06-27T21:20:04.185Z,102646.31
2018-06-27T21:22:33.176Z,102650.77
2018-06-27T21:25:02.621Z,102653.05
2018-06-27T21:27:31.555Z,102652.16
2018-06-27T21:30:00.679Z,102657.06
2018-06-27T21:32:29.365Z,102654.44
2018-06-27T21:34:58.759Z,102657.61
2018-06-27T21:37:28.322Z,102663.36
2018-06-27T21:39:57.722Z,102668.73
2018-06-27T21:42:25.700Z,102664.31
2018-06-27T21:44:56.308Z,102621.15
2018-06-27T21:47:25.609Z,102656.47
2018-06-27T21:49:54.991Z,102662.22
2018-06-27T21:52:24.340Z,102660.92
2018-06-27T21:54:53.447Z,102658.77
2018-06-27T21:57:22.891Z,102653.95
2018-06-27T21:59:52.405Z,102660.13
2018-06-27T22:02:21.436Z,102665.91
2018-06-27T22:04:50.404Z,102663.30
2018-06-27T22:07:20.469Z,102669.92
2018-06-27T22:09:48.330Z,102669.50
2018-06-27T22:12:15.947Z,102672.19
2018-06-27T22:14:43.582Z,102670.95
2018-06-27T22:17:12.494Z,102671.39
2018-06-27T22:19:41.222Z,102670.98
2018-06-27T22:22:09.937Z,102670.11
2018-06-27T22:24:39.056Z,102676.70
2018-06-27T22:27:08.310Z,102677.20
2018-06-27T22:29:38.483Z,102680.70
2018-06-27T22:32:07.503Z,102681.15
2018-06-27T22:34:36.813Z,102676.77
2018-06-27T22:37:04.621Z,102680.75
2018-06-27T22:39:32.249Z,102679.03
2018-06-27T22:42:00.843Z,102679.03
2018-06-27T22:44:29.831Z,102683.91
2018-06-27T22:46:58.997Z,102680.81
2018-06-27T22:49:27.877Z,102682.62
2018-06-27T22:51:56.691Z,102659.43
2018-06-27T22:54:25.649Z,102678.69
2018-06-27T22:56:55.185Z,102681.80
2018-06-27T22:59:24.531Z,102686.20
2018-06-27T23:01:53.511Z,102692.41
2018-06-27T23:04:22.793Z,102684.02
2018-06-27T23:06:51.863Z,102689.79
2018-06-27T23:09:20.544Z,102693.34
2018-06-27T23:11:49.058Z,102688.50
2018-06-27T23:14:18.147Z,102689.89
2018-06-27T23:16:47.034Z,102694.31
2018-06-27T23:19:15.880Z,102695.22
2018-06-27T23:21:44.220Z,102695.23
2018-06-27T23:24:11.841Z,102692.19
2018-06-27T23:26:39.713Z,102700.17
2018-06-27T23:29:07.401Z,102694.03
2018-06-27T23:31:35.247Z,102699.34
2018-06-27T23:34:02.849Z,102702.88
2018-06-27T23:36:30.432Z,102698.95
2018-06-27T23:38:58.141Z,102699.87
2018-06-27T23:41:25.989Z,102697.66
2018-06-27T23:43:53.587Z,102693.70
2018-06-27T23:46:21.278Z,102688.06
2018-06-27T23:48:49.363Z,102690.26
2018-06-27T23:51:16.954Z,102693.37
2018-06-27T23:53:44.626Z,102691.64
2018-06-27T23:56:12.823Z,102693.83
2018-06-27T23:58:40.634Z,102689.94
